NCAR-RAP Real-Time Weather Data

Output produced by METARs form (27 January 2021  15:39 UTC)
found at http://weather.rap.ucar.edu/surface/
 
 
 
K3S8 271535Z AUTO 00000KT 3/4SM -SN OVC003 00/M00 A2953 RMK AO2
 
 
K4S2 271535Z AUTO 13003KT 10SM OVC021 01/01 A2956 RMK AO2
 
K6S2 271535Z AUTO 00000KT 10SM SCT048 03/02 A2944 RMK AO2 T00270017
 
K77S 271535Z AUTO 00000KT M1/4SM FG OVC002 01/01 A2948 RMK A01 VIS M1/4V5
 
 
KAST 271517Z AUTO 12004KT 10SM FEW027 OVC080 02/01 A2948 RMK AO2 T00170006
 
KBDN 271535Z AUTO 14008G14KT 10SM CLR M00/M07 A2950 RMK AO2
 
KBKE 271510Z AUTO 12012KT 4SM -SN FEW022 OVC028 00/M04 A2962 RMK AO2 P0000 T00001044
 
KBNO 271529Z AUTO 09007KT 1SM -SN BR FEW008 BKN012 OVC031 M02/M03 A2960 RMK AO2 P0002 T10221033
 
KBOK 271456Z AUTO 14014G21KT 10SM -RA FEW009 OVC015 04/04 A2947 RMK AO2 PK WND 15027/1401 SLP982 P0003 60006 T00440039 53010
 
KCVO 271536Z AUTO 27003KT 1SM BR SCT002 OVC048 M01/M01 A2951 RMK AO2 UPE00 P0000 FZRANO RVRNO
 
 
KDLS 271453Z AUTO 00000KT 10SM BKN075 OVC085 01/M01 A2955 RMK AO2 SLP009 T00111006 53014 $
 
KEUG 271454Z 21005KT 10SM SCT050 BKN220 01/00 A2948 RMK AO2 SLP985 T00110000 52004
 
KGCD 271513Z AUTO 00000KT 10SM -SN SCT019 BKN044 OVC055 M02/M02 A2957 RMK AO2
 
KHIO 271453Z 00000KT 4SM BR BKN006 OVC013 01/01 A2951 RMK AO2 SLP995 60003 T00110011 52011
 
KHRI 271453Z AUTO 16008G18KT 10SM OVC055 07/M02 A2954 RMK AO2 SLP004 T00721022 53013 $
 
 
 
KLGD 271516Z AUTO 18025G34KT 1 1/2SM -SN BR OVC017 00/M02 A2960 RMK AO2 PK WND 18034/1516 P0000 FZRANO
 
KLKV 271453Z AUTO 17004KT 8SM -SN BKN014 BKN019 OVC025 M03/M04 A2954 RMK AO2 UPB30E32SNE21B32 SLP039 P0001 60001 T10331039 51020 FZRANO $
 
KLMT 271453Z 16020G26KT 10SM BKN110 M01/M07 A2950 RMK AO2 PK WND 17026/1453 SLP001 T10061067 53011
 
KMEH 271456Z AUTO 10SM BKN050 OVC070 M02/M07 A2951 RMK AO2 SNE29 SLP017 P0000 60001 T10171067 53007 $
 
KMFR 271533Z 15018G23KT 10SM CLR 04/M03 A2948 RMK AO2 T00441033
 
KMMV 271502Z AUTO 35006KT 6SM BR OVC009 01/00 A2950 RMK AO2 T00110000 $
 
KONO 271453Z AUTO 14025G33KT 10SM SCT055 SCT070 OVC080 03/M02 A2969 RMK AO2 PK WND 15033/1431 SNB29E38 SLP069 P0000 60001 T00281022 56017
 
KONP 271515Z AUTO 00000KT 10SM SCT042 01/01 A2949 RMK AO2
 
KOTH 271456Z 130/07KT 10SM FEW044 BKN080 OVC110 03/02 A2945
 
 
KPDT 271453Z 16016KT 10SM OVC070 04/M04 A2953 RMK AO2 SLP002 T00441039 53011
 
KPDX 271453Z 11003KT 10SM FEW009 BKN023 BKN250 04/02 A2953 RMK AO2 RAE19 SLP000 P0001 60006 T00390022 53018
 
KRBG 271525Z AUTO 00000KT 3SM BR OVC001 01/M01 A2947 RMK AO2 T00061006
 
KRDM 271356Z 13707KT 10SM CLR M01/M07 A2946
 
KREO 271452Z AUTO 18018G26KT 01/M05 A2959 RMK AO1 PK WND 23028/1357 SLP039 T00061050 53007
 
 
 
KS33 271535Z AUTO 10SM SCT055 00/M05 A2952 RMK AO2
 
KS39 271535Z AUTO 15013KT 10SM CLR M00/M06 A2950 RMK AO2
 
KSLE 271532Z 00000KT 2 1/2SM BR BKN055 00/M01 A2951 RMK AO2 T00001011
 
KSPB 271500Z AUTO 07003KT 10SM OVC013 02/01 A2952 RMK AO2 T00220011
 
KSXT 271537Z AUTO 12009G17KT 1/4SM SN FZFG BKN004 OVC016 M03/M04 A2938 RMK AO2 P0002 T10331039 $
 
KTMK 271515Z AUTO 00000KT 1/4SM FG OVC002 00/00 A2950 RMK AO2
 
KTTD 271453Z 08009KT 10SM FEW026 BKN038 OVC048 04/01 A2953 RMK AO2 RAE1357 SLP998 P0000 60000 T00440011 53020 $
 
KUAO 271453Z 05003KT 1 1/2SM BR FEW003 SCT013 BKN045 02/01 A2952 RMK AO2 SLP998 60002 T00170006 53017